createdAt,value
2023-05-17T00:00:10.422Z,102390.78
2023-05-17T00:02:55.835Z,102380.06
2023-05-17T00:05:40.908Z,102378.56
2023-05-17T00:08:25.992Z,102383.78
2023-05-17T00:11:11.074Z,102392.50
2023-05-17T00:13:56.203Z,102395.19
2023-05-17T00:16:41.087Z,102393.97
2023-05-17T00:19:26.288Z,102378.81
2023-05-17T00:22:11.724Z,102393.72
2023-05-17T00:24:56.829Z,102392.13
2023-05-17T00:27:41.790Z,102374.22
2023-05-17T00:30:26.981Z,102388.94
2023-05-17T00:33:12.101Z,102391.56
2023-05-17T00:35:57.049Z,102389.31
2023-05-17T00:38:42.281Z,102379.91
2023-05-17T00:41:27.485Z,102393.88
2023-05-17T00:44:12.525Z,102390.56
2023-05-17T00:46:59.694Z,102395.69
2023-05-17T00:49:46.101Z,102404.31
2023-05-17T00:52:31.259Z,102390.56
2023-05-17T00:55:16.580Z,102397.69
2023-05-17T00:58:01.904Z,102402.09
2023-05-17T01:00:47.386Z,102409.09
2023-05-17T01:03:32.958Z,102401.50
2023-05-17T01:06:18.335Z,102402.63
2023-05-17T01:09:05.040Z,102401.72
2023-05-17T01:12:18.839Z,102399.91
2023-05-17T01:15:19.731Z,102410.38
2023-05-17T01:18:23.855Z,102396.19
2023-05-17T01:21:37.496Z,102404.97
2023-05-17T01:24:26.418Z,102393.25
2023-05-17T01:27:14.603Z,102401.00
2023-05-17T01:30:02.378Z,102368.56
2023-05-17T01:32:47.511Z,102395.94
2023-05-17T01:35:32.746Z,102402.00
2023-05-17T01:38:17.680Z,102397.59
2023-05-17T01:41:14.324Z,102389.09
2023-05-17T01:44:09.001Z,102395.13
2023-05-17T01:47:12.013Z,102369.13
2023-05-17T01:50:00.314Z,102395.47
2023-05-17T01:52:51.385Z,102400.25
2023-05-17T01:55:56.177Z,102399.13
2023-05-17T01:58:48.782Z,102397.63
2023-05-17T02:01:35.876Z,102394.19
2023-05-17T02:04:21.471Z,102390.59
2023-05-17T02:07:06.922Z,102400.22
2023-05-17T02:09:52.271Z,102403.66
2023-05-17T02:12:37.322Z,102382.06
2023-05-17T02:15:22.586Z,102391.59
2023-05-17T02:18:07.553Z,102390.13
2023-05-17T02:20:53.299Z,102401.44
2023-05-17T02:23:38.079Z,102390.13
2023-05-17T02:26:22.924Z,102382.53
2023-05-17T02:29:07.841Z,102397.09
2023-05-17T02:31:52.757Z,102399.91
2023-05-17T02:34:37.976Z,102397.50
2023-05-17T02:37:22.903Z,102406.41
2023-05-17T02:40:09.753Z,102410.06
2023-05-17T02:42:55.000Z,102392.06
2023-05-17T02:45:39.937Z,102412.59
2023-05-17T02:48:25.035Z,102399.47
2023-05-17T02:51:10.962Z,102408.06
2023-05-17T02:53:55.993Z,102420.88
2023-05-17T02:56:41.240Z,102419.06
2023-05-17T02:59:26.258Z,102424.50
2023-05-17T03:02:11.492Z,102428.09
2023-05-17T03:04:56.648Z,102430.09
2023-05-17T03:07:41.637Z,102425.81
2023-05-17T03:10:26.534Z,102420.72
2023-05-17T03:13:11.651Z,102419.84
2023-05-17T03:15:56.582Z,102435.50
2023-05-17T03:18:41.996Z,102416.88
2023-05-17T03:21:27.218Z,102427.19
2023-05-17T03:24:12.180Z,102435.94
2023-05-17T03:26:57.169Z,102426.66
2023-05-17T03:29:42.227Z,102428.25
2023-05-17T03:32:27.377Z,102413.09
2023-05-17T03:35:12.475Z,102421.44
2023-05-17T03:37:57.507Z,102428.25
2023-05-17T03:40:42.693Z,102423.91
2023-05-17T03:43:28.746Z,102411.00
2023-05-17T03:46:14.550Z,102423.91
2023-05-17T03:48:59.678Z,102429.19
2023-05-17T03:51:45.189Z,102431.09
2023-05-17T03:54:30.691Z,102421.84
2023-05-17T03:57:15.879Z,102417.59
2023-05-17T04:00:00.906Z,102433.97
2023-05-17T04:02:45.975Z,102440.00
2023-05-17T04:05:31.184Z,102440.00
2023-05-17T04:08:16.657Z,102445.22
2023-05-17T04:11:10.557Z,102445.16
2023-05-17T04:13:56.881Z,102444.38
2023-05-17T04:16:42.018Z,102452.31
2023-05-17T04:19:27.062Z,102445.63
2023-05-17T04:22:12.632Z,102454.19
2023-05-17T04:24:57.721Z,102473.22
2023-05-17T04:27:42.732Z,102476.75
2023-05-17T04:30:27.642Z,102478.50
2023-05-17T04:33:14.238Z,102464.72
2023-05-17T04:35:59.673Z,102482.78
2023-05-17T04:38:44.739Z,102485.50
2023-05-17T04:41:31.368Z,102482.03
2023-05-17T04:44:17.139Z,102491.63
2023-05-17T04:47:03.844Z,102483.06
2023-05-17T04:49:48.811Z,102471.72
2023-05-17T04:52:33.583Z,102488.06
2023-05-17T04:55:18.646Z,102494.06
2023-05-17T04:58:03.548Z,102481.22
2023-05-17T05:00:48.475Z,102508.56
2023-05-17T05:03:33.495Z,102504.09
2023-05-17T05:06:18.806Z,102493.44
2023-05-17T05:09:04.303Z,102507.25
2023-05-17T05:11:49.582Z,102497.72
2023-05-17T05:14:35.045Z,102504.50
2023-05-17T05:17:20.048Z,102499.28
2023-05-17T05:20:06.599Z,102513.81
2023-05-17T05:22:52.005Z,102513.50
2023-05-17T05:25:37.671Z,102509.09
2023-05-17T05:28:22.602Z,102511.38
2023-05-17T05:31:07.450Z,102496.47
2023-05-17T05:33:52.718Z,102500.41
2023-05-17T05:36:37.817Z,102512.03
2023-05-17T05:39:22.942Z,102517.00
2023-05-17T05:42:08.373Z,102518.38
2023-05-17T05:44:53.600Z,102515.56
2023-05-17T05:47:38.648Z,102520.59
2023-05-17T05:50:24.042Z,102527.97
2023-05-17T05:53:18.156Z,102520.66
2023-05-17T05:56:04.549Z,102523.66
2023-05-17T05:58:49.784Z,102527.84
2023-05-17T06:01:34.757Z,102528.34
2023-05-17T06:04:24.652Z,102525.53
2023-05-17T06:07:15.458Z,102538.22
2023-05-17T06:10:00.666Z,102535.31
2023-05-17T06:12:45.987Z,102554.56
2023-05-17T06:15:31.454Z,102542.28
2023-05-17T06:18:16.851Z,102561.75
2023-05-17T06:21:01.994Z,102567.22
2023-05-17T06:23:47.250Z,102558.19
2023-05-17T06:26:32.532Z,102563.22
2023-05-17T06:29:17.965Z,102567.41
2023-05-17T06:32:04.761Z,102560.94
2023-05-17T06:34:50.578Z,102567.75
2023-05-17T06:37:35.636Z,102563.88
2023-05-17T06:40:20.981Z,102565.94
2023-05-17T06:43:06.382Z,102568.56
2023-05-17T06:45:51.485Z,102565.63
2023-05-17T06:48:36.921Z,102567.06
2023-05-17T06:51:22.189Z,102573.31
2023-05-17T06:54:07.348Z,102566.81
2023-05-17T06:56:52.365Z,102560.00
2023-05-17T06:59:37.464Z,102572.25
2023-05-17T07:02:22.823Z,102575.06
2023-05-17T07:05:10.666Z,102569.03
2023-05-17T07:07:56.018Z,102575.31
2023-05-17T07:10:41.060Z,102587.84
2023-05-17T07:13:25.910Z,102577.94
2023-05-17T07:16:11.137Z,102566.72
2023-05-17T07:18:56.511Z,102555.78
2023-05-17T07:21:41.848Z,102571.50
2023-05-17T07:24:26.868Z,102575.97
2023-05-17T07:27:12.573Z,102589.28
2023-05-17T07:29:57.533Z,102589.41
2023-05-17T07:32:42.656Z,102587.06
2023-05-17T07:35:28.235Z,102586.41
2023-05-17T07:38:13.733Z,102582.47
2023-05-17T07:40:58.900Z,102582.03
2023-05-17T07:43:44.322Z,102582.63
2023-05-17T07:46:29.580Z,102583.50
2023-05-17T07:49:15.092Z,102576.75
2023-05-17T07:52:00.299Z,102579.31
2023-05-17T07:54:45.461Z,102568.41
2023-05-17T07:57:30.460Z,102572.09
2023-05-17T08:00:19.138Z,102573.66
2023-05-17T08:03:04.340Z,102587.53
2023-05-17T08:05:49.540Z,102585.41
2023-05-17T08:08:34.875Z,102589.50
2023-05-17T08:11:19.946Z,102585.09
2023-05-17T08:14:05.547Z,102600.59
2023-05-17T08:16:51.801Z,102594.97
2023-05-17T08:19:37.259Z,102599.41
2023-05-17T08:22:22.303Z,102596.31
2023-05-17T08:25:07.557Z,102600.72
2023-05-17T08:27:52.770Z,102590.72
2023-05-17T08:30:38.179Z,102589.78
2023-05-17T08:33:25.912Z,102588.63
2023-05-17T08:36:11.264Z,102588.22
2023-05-17T08:38:56.298Z,102582.78
2023-05-17T08:41:41.701Z,102602.06
2023-05-17T08:44:28.529Z,102599.88
2023-05-17T08:47:25.960Z,102589.03
2023-05-17T08:50:12.655Z,102586.72
2023-05-17T08:52:58.625Z,102577.81
2023-05-17T08:55:48.919Z,102581.88
2023-05-17T08:58:52.432Z,102574.38
2023-05-17T09:01:43.760Z,102582.53
2023-05-17T09:04:30.953Z,102573.75
2023-05-17T09:07:17.342Z,102575.59
2023-05-17T09:10:05.594Z,102575.38
2023-05-17T09:12:50.730Z,102580.78
2023-05-17T09:15:37.923Z,102576.88
2023-05-17T09:18:32.543Z,102576.03
2023-05-17T09:21:17.856Z,102572.06
2023-05-17T09:24:07.193Z,102571.50
2023-05-17T09:26:53.803Z,102568.03
2023-05-17T09:29:39.319Z,102558.84
2023-05-17T09:32:28.521Z,102565.72
2023-05-17T09:35:14.005Z,102559.13
2023-05-17T09:38:06.108Z,102558.09
2023-05-17T09:40:51.325Z,102565.88
2023-05-17T09:43:37.107Z,102561.75
2023-05-17T09:46:22.002Z,102551.22
2023-05-17T09:49:09.378Z,102558.44
2023-05-17T09:51:55.086Z,102556.00
2023-05-17T09:54:41.252Z,102544.56
2023-05-17T09:57:27.969Z,102539.53
2023-05-17T10:00:13.715Z,102538.41
2023-05-17T10:02:59.046Z,102531.97
2023-05-17T10:05:45.872Z,102530.34
2023-05-17T10:08:33.353Z,102539.22
2023-05-17T10:11:22.883Z,102536.03
2023-05-17T10:14:13.184Z,102542.13
2023-05-17T10:16:59.036Z,102527.44
2023-05-17T10:19:44.497Z,102522.44
2023-05-17T10:22:30.301Z,102524.72
2023-05-17T10:25:16.005Z,102526.94
2023-05-17T10:28:01.387Z,102527.53
2023-05-17T10:30:47.708Z,102523.88
2023-05-17T10:33:33.297Z,102532.84
2023-05-17T10:36:19.730Z,102530.16
2023-05-17T10:39:09.735Z,102534.41
2023-05-17T10:42:07.222Z,102533.34
2023-05-17T10:45:01.574Z,102539.00
2023-05-17T10:47:47.195Z,102539.13
2023-05-17T10:50:32.555Z,102534.31
2023-05-17T10:53:17.472Z,102531.75
2023-05-17T10:56:02.535Z,102525.50
2023-05-17T10:58:47.887Z,102538.19
2023-05-17T11:01:52.625Z,102524.78
2023-05-17T11:04:38.922Z,102519.81
2023-05-17T11:07:27.282Z,102519.34
2023-05-17T11:10:14.158Z,102527.50
2023-05-17T11:12:59.627Z,102527.09
2023-05-17T11:15:44.885Z,102529.63
2023-05-17T11:18:46.296Z,102514.16
2023-05-17T11:21:31.843Z,102514.84
2023-05-17T11:24:27.246Z,102514.81
2023-05-17T11:27:13.841Z,102511.94
2023-05-17T11:30:08.080Z,102513.06
2023-05-17T11:32:58.576Z,102513.81
2023-05-17T11:35:44.748Z,102506.78
2023-05-17T11:38:32.479Z,102513.66
2023-05-17T11:41:26.883Z,102506.91
2023-05-17T11:44:13.397Z,102498.44
2023-05-17T11:47:03.816Z,102496.66
2023-05-17T11:49:53.718Z,102489.88
2023-05-17T11:52:40.606Z,102489.34
2023-05-17T11:55:26.407Z,102467.44
2023-05-17T11:58:13.894Z,102488.03
2023-05-17T12:00:59.132Z,102492.13
2023-05-17T12:03:44.585Z,102480.59
2023-05-17T12:06:30.276Z,102489.00
2023-05-17T12:09:17.658Z,102472.97
2023-05-17T12:12:04.668Z,102492.09
2023-05-17T12:14:50.746Z,102480.22
2023-05-17T12:17:42.907Z,102475.31
2023-05-17T12:20:29.246Z,102485.06
2023-05-17T12:23:14.615Z,102472.81
2023-05-17T12:26:07.656Z,102485.50
2023-05-17T12:28:57.474Z,102466.38
2023-05-17T12:31:50.178Z,102460.00
2023-05-17T12:34:35.953Z,102474.16
2023-05-17T12:37:21.064Z,102450.72
2023-05-17T12:40:07.841Z,102469.59
2023-05-17T12:43:01.574Z,102467.66
2023-05-17T12:45:47.839Z,102465.38
2023-05-17T12:48:34.380Z,102471.13
2023-05-17T12:51:22.115Z,102470.88
2023-05-17T12:54:07.391Z,102447.28
2023-05-17T12:56:52.520Z,102458.47
2023-05-17T12:59:49.647Z,102464.88
2023-05-17T13:02:34.921Z,102467.66
2023-05-17T13:05:23.076Z,102470.25
2023-05-17T13:08:21.279Z,102475.63
2023-05-17T13:11:14.100Z,102468.69
2023-05-17T13:13:59.256Z,102447.19
2023-05-17T13:16:45.809Z,102462.06
2023-05-17T13:19:31.245Z,102460.44
2023-05-17T13:22:16.524Z,102456.56
2023-05-17T13:25:03.153Z,102455.16
2023-05-17T13:27:51.048Z,102460.25
2023-05-17T13:30:38.017Z,102473.34
2023-05-17T13:33:23.639Z,102474.34
2023-05-17T13:36:09.256Z,102472.00
2023-05-17T13:38:56.681Z,102458.97
2023-05-17T13:41:41.846Z,102466.66
2023-05-17T13:44:27.294Z,102473.97
2023-05-17T13:47:12.392Z,102462.66
2023-05-17T13:50:03.962Z,102473.31
2023-05-17T13:52:49.242Z,102474.72
2023-05-17T13:55:34.649Z,102463.38
2023-05-17T13:58:19.853Z,102467.34
2023-05-17T14:01:05.105Z,102460.91
2023-05-17T14:03:50.327Z,102460.03
2023-05-17T14:06:35.615Z,102468.59
2023-05-17T14:09:21.547Z,102464.88
2023-05-17T14:12:06.928Z,102465.47
2023-05-17T14:14:52.225Z,102460.78
2023-05-17T14:17:37.320Z,102466.19
2023-05-17T14:20:22.585Z,102463.69
2023-05-17T14:23:07.520Z,102448.56
2023-05-17T14:25:52.465Z,102442.84
2023-05-17T14:28:38.990Z,102444.25
2023-05-17T14:31:24.295Z,102447.88
2023-05-17T14:34:09.665Z,102447.50
2023-05-17T14:36:54.935Z,102440.78
2023-05-17T14:39:39.780Z,102454.00
2023-05-17T14:42:25.792Z,102447.09
2023-05-17T14:45:11.149Z,102451.13
2023-05-17T14:47:56.293Z,102452.16
2023-05-17T14:50:41.748Z,102441.78
2023-05-17T14:53:29.740Z,102451.09
2023-05-17T14:56:15.297Z,102441.78
2023-05-17T14:59:00.390Z,102448.38
2023-05-17T15:01:45.421Z,102445.44
2023-05-17T15:04:30.842Z,102445.59
2023-05-17T15:07:17.344Z,102434.91
2023-05-17T15:10:05.837Z,102441.44
2023-05-17T15:12:52.334Z,102435.91
2023-05-17T15:15:38.394Z,102449.47
2023-05-17T15:18:23.955Z,102444.34
2023-05-17T15:21:10.258Z,102444.94
2023-05-17T15:23:55.336Z,102442.56
2023-05-17T15:26:40.529Z,102448.38
2023-05-17T15:29:25.797Z,102450.94
2023-05-17T15:32:11.209Z,102450.59
2023-05-17T15:34:56.367Z,102447.56
2023-05-17T15:37:41.446Z,102445.00
2023-05-17T15:40:26.836Z,102457.06
2023-05-17T15:43:11.941Z,102447.94
2023-05-17T15:45:56.853Z,102461.78
2023-05-17T15:48:42.105Z,102462.47
2023-05-17T15:51:27.400Z,102465.22
2023-05-17T15:54:12.544Z,102442.69
2023-05-17T15:56:57.755Z,102458.50
2023-05-17T15:59:42.722Z,102463.06
2023-05-17T16:02:27.961Z,102467.03
2023-05-17T16:05:13.253Z,102470.22
2023-05-17T16:07:58.080Z,102465.72
2023-05-17T16:10:43.347Z,102473.06
2023-05-17T16:13:28.466Z,102482.28
2023-05-17T16:16:14.569Z,102450.50
2023-05-17T16:19:01.114Z,102476.38
2023-05-17T16:21:49.238Z,102467.66
2023-05-17T16:24:46.817Z,102473.66
2023-05-17T16:27:32.030Z,102478.88
2023-05-17T16:30:18.347Z,102467.28
2023-05-17T16:33:03.748Z,102466.13
2023-05-17T16:35:50.067Z,102461.47
2023-05-17T16:38:35.319Z,102454.03
2023-05-17T16:41:21.248Z,102461.09
2023-05-17T16:44:06.285Z,102450.22
2023-05-17T16:46:51.772Z,102443.59
2023-05-17T16:49:37.221Z,102464.56
2023-05-17T16:52:22.918Z,102459.63
2023-05-17T16:55:09.357Z,102456.81
2023-05-17T16:57:54.307Z,102461.53
2023-05-17T17:00:39.383Z,102455.53
2023-05-17T17:03:24.614Z,102444.13
2023-05-17T17:06:09.737Z,102457.81
2023-05-17T17:08:55.060Z,102466.22
2023-05-17T17:11:40.185Z,102455.22
2023-05-17T17:14:26.052Z,102436.91
2023-05-17T17:17:11.343Z,102462.53
2023-05-17T17:19:56.584Z,102450.03
2023-05-17T17:22:41.672Z,102456.00
2023-05-17T17:25:26.992Z,102458.22
2023-05-17T17:28:12.363Z,102461.84
2023-05-17T17:30:58.467Z,102462.59
2023-05-17T17:33:43.734Z,102447.34
2023-05-17T17:36:30.345Z,102455.50
2023-05-17T17:39:17.165Z,102463.78
2023-05-17T17:42:02.439Z,102461.66
2023-05-17T17:44:47.501Z,102463.69
2023-05-17T17:47:32.387Z,102469.22
2023-05-17T17:50:17.432Z,102465.41
2023-05-17T17:53:02.321Z,102462.97
2023-05-17T17:55:47.632Z,102465.63
2023-05-17T17:58:32.654Z,102461.91
2023-05-17T18:01:18.160Z,102465.41
2023-05-17T18:04:05.154Z,102468.59
2023-05-17T18:06:50.423Z,102468.13
2023-05-17T18:09:35.824Z,102474.72
2023-05-17T18:12:21.308Z,102468.94
2023-05-17T18:15:06.888Z,102488.06
2023-05-17T18:17:52.202Z,102488.44
2023-05-17T18:20:37.241Z,102494.59
2023-05-17T18:23:22.496Z,102489.47
2023-05-17T18:26:07.581Z,102485.47
2023-05-17T18:28:52.966Z,102496.53
2023-05-17T18:31:38.085Z,102496.97
2023-05-17T18:34:25.224Z,102496.75
2023-05-17T18:37:10.207Z,102510.06
2023-05-17T18:39:55.265Z,102501.78
2023-05-17T18:42:40.606Z,102500.56
2023-05-17T18:45:25.809Z,102507.00
2023-05-17T18:48:10.993Z,102498.97
2023-05-17T18:50:57.403Z,102503.34
2023-05-17T18:53:42.826Z,102510.91
2023-05-17T18:56:28.675Z,102496.34
2023-05-17T18:59:13.727Z,102504.00
2023-05-17T19:01:58.649Z,102502.38
2023-05-17T19:04:44.089Z,102497.19
2023-05-17T19:07:29.092Z,102501.84
2023-05-17T19:10:14.563Z,102500.69
2023-05-17T19:12:59.772Z,102487.47
2023-05-17T19:15:45.012Z,102498.88
2023-05-17T19:18:30.640Z,102505.19
2023-05-17T19:21:15.818Z,102495.94
2023-05-17T19:24:01.290Z,102500.66
2023-05-17T19:26:46.546Z,102499.13
2023-05-17T19:29:33.017Z,102507.41
2023-05-17T19:32:19.822Z,102494.84
2023-05-17T19:35:05.640Z,102508.97
2023-05-17T19:37:50.591Z,102515.63
2023-05-17T19:40:36.232Z,102506.03
2023-05-17T19:43:21.203Z,102517.34
2023-05-17T19:46:10.462Z,102516.66
2023-05-17T19:48:57.241Z,102518.72
2023-05-17T19:51:42.365Z,102519.72
2023-05-17T19:54:30.579Z,102522.31
2023-05-17T19:57:15.785Z,102527.94
2023-05-17T20:00:00.754Z,102525.72
2023-05-17T20:02:49.054Z,102530.75
2023-05-17T20:05:34.393Z,102525.63
2023-05-17T20:08:19.628Z,102540.34
2023-05-17T20:11:06.572Z,102549.50
2023-05-17T20:13:51.853Z,102550.53
2023-05-17T20:16:37.092Z,102545.97
2023-05-17T20:19:22.579Z,102542.56
2023-05-17T20:22:07.831Z,102533.28
2023-05-17T20:24:53.376Z,102512.56
2023-05-17T20:27:38.911Z,102537.59
2023-05-17T20:30:24.194Z,102536.59
2023-05-17T20:33:10.632Z,102547.97
2023-05-17T20:35:56.101Z,102553.56
2023-05-17T20:38:43.118Z,102556.44
2023-05-17T20:41:28.100Z,102561.63
2023-05-17T20:44:19.528Z,102556.00
2023-05-17T20:47:05.912Z,102556.41
2023-05-17T20:49:51.039Z,102561.22
2023-05-17T20:52:39.495Z,102561.53
2023-05-17T20:55:25.140Z,102567.34
2023-05-17T20:58:11.257Z,102563.06
2023-05-17T21:00:57.075Z,102567.47
2023-05-17T21:03:43.258Z,102549.84
2023-05-17T21:06:29.707Z,102565.94
2023-05-17T21:09:18.854Z,102562.84
2023-05-17T21:12:04.202Z,102567.63
2023-05-17T21:14:59.869Z,102563.06
2023-05-17T21:17:53.180Z,102570.78
2023-05-17T21:20:39.098Z,102559.13
2023-05-17T21:23:24.427Z,102562.66
2023-05-17T21:26:09.745Z,102548.28
2023-05-17T21:28:54.764Z,102561.91
2023-05-17T21:31:39.894Z,102566.59
2023-05-17T21:34:25.334Z,102569.16
2023-05-17T21:37:10.365Z,102570.03
2023-05-17T21:39:55.698Z,102572.59
2023-05-17T21:42:41.011Z,102570.88
2023-05-17T21:45:26.606Z,102569.38
2023-05-17T21:48:11.747Z,102560.81
2023-05-17T21:50:57.328Z,102555.69
2023-05-17T21:53:42.618Z,102554.66
2023-05-17T21:56:27.684Z,102553.97
2023-05-17T21:59:12.935Z,102544.28
2023-05-17T22:01:58.420Z,102547.63
2023-05-17T22:04:43.690Z,102544.97
2023-05-17T22:07:28.902Z,102544.97
2023-05-17T22:10:14.370Z,102546.19
2023-05-17T22:13:02.082Z,102543.44
2023-05-17T22:15:47.215Z,102540.09
2023-05-17T22:18:32.654Z,102548.34
2023-05-17T22:21:19.136Z,102549.91
2023-05-17T22:24:04.063Z,102547.59
2023-05-17T22:26:49.394Z,102550.06
2023-05-17T22:29:34.368Z,102535.44
2023-05-17T22:32:19.343Z,102546.66
2023-05-17T22:35:04.993Z,102545.25
2023-05-17T22:37:51.788Z,102553.44
2023-05-17T22:40:36.989Z,102544.13
2023-05-17T22:43:21.853Z,102552.78
2023-05-17T22:46:06.833Z,102543.22
2023-05-17T22:48:52.686Z,102541.47
2023-05-17T22:51:38.853Z,102537.16
2023-05-17T22:54:24.731Z,102534.59
2023-05-17T22:57:09.671Z,102545.34
2023-05-17T22:59:54.873Z,102524.88
2023-05-17T23:02:39.969Z,102540.09
2023-05-17T23:05:25.121Z,102551.59
2023-05-17T23:08:10.206Z,102531.13
2023-05-17T23:10:55.694Z,102546.59
2023-05-17T23:13:41.904Z,102530.22
2023-05-17T23:16:28.206Z,102543.88
2023-05-17T23:19:13.690Z,102549.19
2023-05-17T23:22:06.032Z,102545.69
2023-05-17T23:24:51.299Z,102545.22
2023-05-17T23:27:36.434Z,102535.03
2023-05-17T23:30:21.869Z,102528.31
2023-05-17T23:33:06.905Z,102552.50
2023-05-17T23:35:53.515Z,102546.50
2023-05-17T23:38:39.140Z,102533.47
2023-05-17T23:41:25.424Z,102541.25
2023-05-17T23:44:10.888Z,102536.97
2023-05-17T23:46:56.304Z,102539.59
2023-05-17T23:49:41.438Z,102537.06
2023-05-17T23:52:29.854Z,102531.75
2023-05-17T23:55:15.267Z,102529.25
2023-05-17T23:58:00.172Z,102526.78
